Vidfoss — V2QK4 — position and weather

sailwx.info

Track history (hours):
 
Tides and Currents Weather Stations Pressure Air Temp Water Temp Dewpoint Dewpoint Depression Visibility Wind Speed Wind Dir Waves Ship Positions

Vidfoss

Last reported at 2015-May-30 22:31 UTC. Time now 2015-May-30 22:44 UTC.
Position N 55°51' E 012°50'.

Length 93 m; draft 4.3 m.

Type: Cargo ship. MMSI: 305846000.

Date/timePositionNaut miles runAvg speedWind from/ knotsBaromVisibWave heightAir tempDewpointWater temp
2015-May-30 22:31N 55°51' E 012°50'0 0.0
2015-May-30 21:32N 55°51' E 012°50'0 0.0
2015-May-30 20:33N 55°51' E 012°50'0 0.0
2015-May-30 19:33N 55°51' E 012°50'0 0.0
2015-May-30 18:31N 55°51' E 012°50'0 0.0
2015-May-30 17:32N 55°51' E 012°50'0 0.0
2015-May-30 16:32N 55°51' E 012°50'0 0.0
2015-May-30 15:33N 55°51' E 012°50'0 0.0
2015-May-30 14:31N 55°51' E 012°50'0 0.0
2015-May-30 13:31N 55°51' E 012°50'0 0.0
2015-May-30 12:32N 55°51' E 012°50'0 0.0
2015-May-30 11:33N 55°51' E 012°50'0 0.0
2015-May-30 10:33N 55°51' E 012°50'0 0.0
2015-May-30 09:33N 55°51' E 012°50'0 0.0
2015-May-30 08:33N 55°51' E 012°50'0 0.0
2015-May-30 07:33N 55°51' E 012°50'0 0.3
2015-May-30 06:33N 55°52' E 012°50'9 9.3
2015-May-30 05:33N 55°59' E 012°41'1010.3
2015-May-30 04:33N 56°08' E 012°30'1110.7
2015-May-30 03:33N 56°14' E 012°14'2110.3
2015-May-30 01:31N 56°32' E 011°56'1111.8
2015-May-30 00:33N 56°43' E 011°52'1010.3
2015-May-29 23:33N 56°53' E 011°46'1010.0
2015-May-29 22:33N 57°03' E 011°41'1110.5
2015-May-29 21:33N 57°12' E 011°33'1010.4
2015-May-29 20:33N 57°22' E 011°27'10 9.8
2015-May-29 19:33N 57°31' E 011°18'1110.7
2015-May-29 18:33N 57°38' E 011°03'1110.9
2015-May-29 17:30N 57°46' E 010°47'28012.5
2015-May-28 19:03N 54°18' E 005°09'612.3
2015-May-28 18:33N 54°12' E 005°09'1312.4
2015-May-28 17:33N 53°60' E 005°09'5813.3
2015-May-28 13:12N 53°06' E 004°34'913.8
2015-May-28 12:32N 52°57' E 004°31'1413.8
2015-May-28 11:32N 52°43' E 004°31'1313.8
2015-May-28 10:33N 52°30' E 004°29'5 4.7
2015-May-28 09:33N 52°28' E 004°37'2 1.8
2015-May-28 08:28N 52°28' E 004°40'0 0.0
2015-May-28 07:32N 52°28' E 004°40'0 0.0
2015-May-28 06:30N 52°28' E 004°40'0 0.0
2015-May-28 05:33N 52°28' E 004°40'0 0.0
2015-May-28 04:31N 52°28' E 004°40'0 0.0
2015-May-28 03:20N 52°28' E 004°40'0 0.0
2015-May-28 02:32N 52°28' E 004°40'0 0.0
2015-May-28 01:33N 52°28' E 004°40'0 0.0
2015-May-28 00:33N 52°28' E 004°40'0 0.0
2015-May-27 23:31N 52°28' E 004°40'0 0.0
2015-May-27 22:26N 52°28' E 004°40'0 0.0
2015-May-27 21:32N 52°28' E 004°40'0 0.0
2015-May-27 20:18N 52°28' E 004°40'0 0.0
2015-May-27 19:31N 52°28' E 004°40'0 0.0
2015-May-27 18:28N 52°28' E 004°40'0 0.0
2015-May-27 17:29N 52°28' E 004°40'0 0.0
2015-May-27 16:33N 52°28' E 004°40'0 0.0
2015-May-27 15:33N 52°28' E 004°40'0 0.0
2015-May-27 14:22N 52°28' E 004°40'0 0.0
2015-May-27 13:31N 52°28' E 004°40'0 0.0
2015-May-27 12:29N 52°28' E 004°40'0 0.0
2015-May-27 11:27N 52°28' E 004°40'0 0.0
2015-May-27 10:33N 52°28' E 004°40'0 0.0
2015-May-27 09:25N 52°28' E 004°40'0 0.0
2015-May-27 08:33N 52°28' E 004°40'0 0.0
2015-May-27 07:34N 52°28' E 004°40'0 0.0
2015-May-27 06:32N 52°28' E 004°40'2 2.1
2015-May-27 05:33N 52°28' E 004°37'8 7.7
2015-May-27 04:33N 52°34' E 004°29'2913.2
2015-May-27 02:24N 53°03' E 004°32'7011.5
2015-May-26 20:22N 54°11' E 004°54'27512.5
2015-May-25 22:23N 58°46' E 005°14'1113.1
2015-May-25 21:33N 58°57' E 005°17'1313.1
2015-May-25 20:34N 59°10' E 005°20'1312.8
2015-May-25 19:33N 59°22' E 005°18'230 9.0
2015-May-24 18:05N 63°05' E 007°25'58 7.4
2015-May-24 10:12N 63°35' E 009°16'812.1
2015-May-24 09:32N 63°43' E 009°17'1111.7
2015-May-24 08:34N 63°54' E 009°26'1211.9
2015-May-24 07:34N 64°05' E 009°38'6011.2
2015-May-24 02:14N 64°50' E 011°10'710.4
2015-May-24 01:33N 64°55' E 011°21'1211.3
2015-May-24 00:32N 65°02' E 011°43'1111.6
2015-May-23 23:33N 65°12' E 011°53'7311.2
2015-May-23 17:05N 66°20' E 012°57'812.4
2015-May-23 16:27N 66°28' E 012°59'3311.3
2015-May-23 13:33N 66°58' E 013°29'6211.5
2015-May-23 08:10N 67°59' E 013°60'143 7.7
2015-May-22 13:33N 69°36' E 018°53'2 2.0
2015-May-22 12:33N 69°38' E 018°57'0 0.0
2015-May-22 11:33N 69°38' E 018°57'0 0.0
2015-May-22 10:33N 69°38' E 018°57'0 0.0
2015-May-22 09:33N 69°38' E 018°57'0 0.0
2015-May-22 08:33N 69°38' E 018°57'0 0.0
2015-May-22 07:33N 69°38' E 018°57'0 0.2
2015-May-22 06:34N 69°38' E 018°56'2 2.0
2015-May-22 05:34N 69°39' E 018°58'0 0.0
2015-May-22 04:34N 69°39' E 018°58'0 0.0
2015-May-22 03:34N 69°39' E 018°58'0 0.0
2015-May-22 02:33N 69°39' E 018°58'0 0.0
2015-May-22 01:33N 69°39' E 018°58'4 4.4
2015-May-22 00:33N 69°43' E 019°03'  
Track history (hours):
 
Tides and Currents Weather Stations Pressure Air Temp Water Temp Dewpoint Dewpoint Depression Visibility Wind Speed Wind Dir Waves Ship Positions

Vidfoss

Last reported at 2015-May-30 22:31 UTC. Time now 2015-May-30 22:44 UTC.
Position N 55°51' E 012°50'.

Length 93 m; draft 4.3 m.

Type: Cargo ship. MMSI: 305846000.

Date/timePositionNaut miles runAvg speedWind from/ knotsBaromVisibWave heightAir tempDewpointWater temp
2015-May-30 22:31N 55°51' E 012°50'0 0.0
2015-May-30 21:32N 55°51' E 012°50'0 0.0
2015-May-30 20:33N 55°51' E 012°50'0 0.0
2015-May-30 19:33N 55°51' E 012°50'0 0.0
2015-May-30 18:31N 55°51' E 012°50'0 0.0
2015-May-30 17:32N 55°51' E 012°50'0 0.0
2015-May-30 16:32N 55°51' E 012°50'0 0.0
2015-May-30 15:33N 55°51' E 012°50'0 0.0
2015-May-30 14:31N 55°51' E 012°50'0 0.0
2015-May-30 13:31N 55°51' E 012°50'0 0.0
2015-May-30 12:32N 55°51' E 012°50'0 0.0
2015-May-30 11:33N 55°51' E 012°50'0 0.0
2015-May-30 10:33N 55°51' E 012°50'0 0.0
2015-May-30 09:33N 55°51' E 012°50'0 0.0
2015-May-30 08:33N 55°51' E 012°50'0 0.0
2015-May-30 07:33N 55°51' E 012°50'0 0.3
2015-May-30 06:33N 55°52' E 012°50'9 9.3
2015-May-30 05:33N 55°59' E 012°41'1010.3
2015-May-30 04:33N 56°08' E 012°30'1110.7
2015-May-30 03:33N 56°14' E 012°14'2110.3
2015-May-30 01:31N 56°32' E 011°56'1111.8
2015-May-30 00:33N 56°43' E 011°52'1010.3
2015-May-29 23:33N 56°53' E 011°46'1010.0
2015-May-29 22:33N 57°03' E 011°41'1110.5
2015-May-29 21:33N 57°12' E 011°33'1010.4
2015-May-29 20:33N 57°22' E 011°27'10 9.8
2015-May-29 19:33N 57°31' E 011°18'1110.7
2015-May-29 18:33N 57°38' E 011°03'1110.9
2015-May-29 17:30N 57°46' E 010°47'28012.5
2015-May-28 19:03N 54°18' E 005°09'612.3
2015-May-28 18:33N 54°12' E 005°09'1312.4
2015-May-28 17:33N 53°60' E 005°09'5813.3
2015-May-28 13:12N 53°06' E 004°34'913.8
2015-May-28 12:32N 52°57' E 004°31'1413.8
2015-May-28 11:32N 52°43' E 004°31'1313.8
2015-May-28 10:33N 52°30' E 004°29'5 4.7
2015-May-28 09:33N 52°28' E 004°37'2 1.8
2015-May-28 08:28N 52°28' E 004°40'0 0.0
2015-May-28 07:32N 52°28' E 004°40'0 0.0
2015-May-28 06:30N 52°28' E 004°40'0 0.0
2015-May-28 05:33N 52°28' E 004°40'0 0.0
2015-May-28 04:31N 52°28' E 004°40'0 0.0
2015-May-28 03:20N 52°28' E 004°40'0 0.0
2015-May-28 02:32N 52°28' E 004°40'0 0.0
2015-May-28 01:33N 52°28' E 004°40'0 0.0
2015-May-28 00:33N 52°28' E 004°40'0 0.0
2015-May-27 23:31N 52°28' E 004°40'0 0.0
2015-May-27 22:26N 52°28' E 004°40'0 0.0
2015-May-27 21:32N 52°28' E 004°40'0 0.0
2015-May-27 20:18N 52°28' E 004°40'0 0.0
2015-May-27 19:31N 52°28' E 004°40'0 0.0
2015-May-27 18:28N 52°28' E 004°40'0 0.0
2015-May-27 17:29N 52°28' E 004°40'0 0.0
2015-May-27 16:33N 52°28' E 004°40'0 0.0
2015-May-27 15:33N 52°28' E 004°40'0 0.0
2015-May-27 14:22N 52°28' E 004°40'0 0.0
2015-May-27 13:31N 52°28' E 004°40'0 0.0
2015-May-27 12:29N 52°28' E 004°40'0 0.0
2015-May-27 11:27N 52°28' E 004°40'0 0.0
2015-May-27 10:33N 52°28' E 004°40'0 0.0
2015-May-27 09:25N 52°28' E 004°40'0 0.0
2015-May-27 08:33N 52°28' E 004°40'0 0.0
2015-May-27 07:34N 52°28' E 004°40'0 0.0
2015-May-27 06:32N 52°28' E 004°40'2 2.1
2015-May-27 05:33N 52°28' E 004°37'8 7.7
2015-May-27 04:33N 52°34' E 004°29'2913.2
2015-May-27 02:24N 53°03' E 004°32'7011.5
2015-May-26 20:22N 54°11' E 004°54'27512.5
2015-May-25 22:23N 58°46' E 005°14'1113.1
2015-May-25 21:33N 58°57' E 005°17'1313.1
2015-May-25 20:34N 59°10' E 005°20'1312.8
2015-May-25 19:33N 59°22' E 005°18'230 9.0
2015-May-24 18:05N 63°05' E 007°25'58 7.4
2015-May-24 10:12N 63°35' E 009°16'812.1
2015-May-24 09:32N 63°43' E 009°17'1111.7
2015-May-24 08:34N 63°54' E 009°26'1211.9
2015-May-24 07:34N 64°05' E 009°38'6011.2
2015-May-24 02:14N 64°50' E 011°10'710.4
2015-May-24 01:33N 64°55' E 011°21'1211.3
2015-May-24 00:32N 65°02' E 011°43'1111.6
2015-May-23 23:33N 65°12' E 011°53'7311.2
2015-May-23 17:05N 66°20' E 012°57'812.4
2015-May-23 16:27N 66°28' E 012°59'3311.3
2015-May-23 13:33N 66°58' E 013°29'6211.5
2015-May-23 08:10N 67°59' E 013°60'143 7.7
2015-May-22 13:33N 69°36' E 018°53'2 2.0
2015-May-22 12:33N 69°38' E 018°57'0 0.0
2015-May-22 11:33N 69°38' E 018°57'0 0.0
2015-May-22 10:33N 69°38' E 018°57'0 0.0
2015-May-22 09:33N 69°38' E 018°57'0 0.0
2015-May-22 08:33N 69°38' E 018°57'0 0.0
2015-May-22 07:33N 69°38' E 018°57'0 0.2
2015-May-22 06:34N 69°38' E 018°56'2 2.0
2015-May-22 05:34N 69°39' E 018°58'0 0.0
2015-May-22 04:34N 69°39' E 018°58'0 0.0
2015-May-22 03:34N 69°39' E 018°58'0 0.0
2015-May-22 02:33N 69°39' E 018°58'0 0.0
2015-May-22 01:33N 69°39' E 018°58'4 4.4
2015-May-22 00:33N 69°43' E 019°03'  

Dump ship's entire track history